sensor_id;sensor_type;location;lat;lon;timestamp;temperature;humidity
6581;DHT22;3324;50.796;7.228;2022-10-28T00:00:20;18.00;99.90
6581;DHT22;3324;50.796;7.228;2022-10-28T00:02:46;18.00;99.90
6581;DHT22;3324;50.796;7.228;2022-10-28T00:05:12;18.00;99.90
6581;DHT22;3324;50.796;7.228;2022-10-28T00:07:38;18.00;99.90
6581;DHT22;3324;50.796;7.228;2022-10-28T00:10:04;18.00;99.90
6581;DHT22;3324;50.796;7.228;2022-10-28T00:12:30;18.00;99.90
6581;DHT22;3324;50.796;7.228;2022-10-28T00:14:58;18.00;99.90
6581;DHT22;3324;50.796;7.228;2022-10-28T00:17:24;18.00;99.90
6581;DHT22;3324;50.796;7.228;2022-10-28T00:19:49;18.00;99.90
6581;DHT22;3324;50.796;7.228;2022-10-28T00:22:15;18.00;99.90
6581;DHT22;3324;50.796;7.228;2022-10-28T00:24:40;18.00;99.90
6581;DHT22;3324;50.796;7.228;2022-10-28T00:27:06;18.00;99.90
6581;DHT22;3324;50.796;7.228;2022-10-28T00:29:32;18.00;99.90
6581;DHT22;3324;50.796;7.228;2022-10-28T00:31:57;18.10;99.90
6581;DHT22;3324;50.796;7.228;2022-10-28T00:34:23;18.10;99.90
6581;DHT22;3324;50.796;7.228;2022-10-28T00:36:48;18.10;99.90
6581;DHT22;3324;50.796;7.228;2022-10-28T00:39:20;18.10;99.90
6581;DHT22;3324;50.796;7.228;2022-10-28T00:41:52;18.20;99.90
6581;DHT22;3324;50.796;7.228;2022-10-28T00:49:50;18.10;99.90
6581;DHT22;3324;50.796;7.228;2022-10-28T00:52:21;18.10;99.90
6581;DHT22;3324;50.796;7.228;2022-10-28T00:54:49;18.20;99.90
6581;DHT22;3324;50.796;7.228;2022-10-28T00:57:19;18.20;99.90
6581;DHT22;3324;50.796;7.228;2022-10-28T00:59:48;18.20;99.90
6581;DHT22;3324;50.796;7.228;2022-10-28T01:02:14;18.20;99.90
6581;DHT22;3324;50.796;7.228;2022-10-28T01:04:41;18.20;99.90
6581;DHT22;3324;50.796;7.228;2022-10-28T01:07:07;18.20;99.90
6581;DHT22;3324;50.796;7.228;2022-10-28T01:09:33;18.10;99.90
6581;DHT22;3324;50.796;7.228;2022-10-28T01:22:42;18.20;99.90
6581;DHT22;3324;50.796;7.228;2022-10-28T01:33:53;18.20;99.90
6581;DHT22;3324;50.796;7.228;2022-10-28T01:44:27;18.20;99.90
6581;DHT22;3324;50.796;7.228;2022-10-28T01:47:09;18.20;99.90
6581;DHT22;3324;50.796;7.228;2022-10-28T01:49:56;18.20;99.90
6581;DHT22;3324;50.796;7.228;2022-10-28T01:52:27;18.20;99.90
6581;DHT22;3324;50.796;7.228;2022-10-28T01:55:05;18.20;99.90
6581;DHT22;3324;50.796;7.228;2022-10-28T01:57:34;18.30;99.90
6581;DHT22;3324;50.796;7.228;2022-10-28T02:00:00;18.30;99.90
6581;DHT22;3324;50.796;7.228;2022-10-28T02:02:34;18.20;99.90
6581;DHT22;3324;50.796;7.228;2022-10-28T02:10:39;18.20;99.90
6581;DHT22;3324;50.796;7.228;2022-10-28T02:13:11;18.20;99.90
6581;DHT22;3324;50.796;7.228;2022-10-28T02:16:10;18.20;99.90
6581;DHT22;3324;50.796;7.228;2022-10-28T02:18:55;18.20;99.90
6581;DHT22;3324;50.796;7.228;2022-10-28T02:21:43;18.30;99.90
6581;DHT22;3324;50.796;7.228;2022-10-28T02:25:00;18.30;99.90
6581;DHT22;3324;50.796;7.228;2022-10-28T02:30:01;18.30;99.90
6581;DHT22;3324;50.796;7.228;2022-10-28T02:32:29;18.30;99.90
6581;DHT22;3324;50.796;7.228;2022-10-28T02:34:58;18.30;99.90
6581;DHT22;3324;50.796;7.228;2022-10-28T02:37:30;18.30;99.90
6581;DHT22;3324;50.796;7.228;2022-10-28T02:40:01;18.30;99.90
6581;DHT22;3324;50.796;7.228;2022-10-28T02:42:32;18.20;99.90
6581;DHT22;3324;50.796;7.228;2022-10-28T02:45:07;18.20;99.90
6581;DHT22;3324;50.796;7.228;2022-10-28T02:47:35;18.20;99.90
6581;DHT22;3324;50.796;7.228;2022-10-28T02:50:07;18.10;99.90
6581;DHT22;3324;50.796;7.228;2022-10-28T02:52:34;18.20;99.90
6581;DHT22;3324;50.796;7.228;2022-10-28T02:55:02;18.10;99.90
6581;DHT22;3324;50.796;7.228;2022-10-28T02:57:34;18.10;99.90
6581;DHT22;3324;50.796;7.228;2022-10-28T03:00:08;18.10;99.90
6581;DHT22;3324;50.796;7.228;2022-10-28T03:02:34;18.10;99.90
6581;DHT22;3324;50.796;7.228;2022-10-28T03:05:00;18.10;99.90
6581;DHT22;3324;50.796;7.228;2022-10-28T03:07:25;18.00;99.90
6581;DHT22;3324;50.796;7.228;2022-10-28T03:09:51;18.10;99.90
6581;DHT22;3324;50.796;7.228;2022-10-28T03:12:16;18.10;99.90
6581;DHT22;3324;50.796;7.228;2022-10-28T03:14:42;18.20;99.90
6581;DHT22;3324;50.796;7.228;2022-10-28T03:17:07;18.10;99.90
6581;DHT22;3324;50.796;7.228;2022-10-28T03:19:33;18.20;99.90
6581;DHT22;3324;50.796;7.228;2022-10-28T03:21:59;18.20;99.90
6581;DHT22;3324;50.796;7.228;2022-10-28T03:24:24;18.20;99.90
6581;DHT22;3324;50.796;7.228;2022-10-28T03:26:50;18.20;99.90
6581;DHT22;3324;50.796;7.228;2022-10-28T03:29:15;18.10;99.90
6581;DHT22;3324;50.796;7.228;2022-10-28T03:31:41;18.10;99.90
6581;DHT22;3324;50.796;7.228;2022-10-28T03:34:06;18.10;99.90
6581;DHT22;3324;50.796;7.228;2022-10-28T03:36:32;18.10;99.90
6581;DHT22;3324;50.796;7.228;2022-10-28T03:38:58;18.10;99.90
6581;DHT22;3324;50.796;7.228;2022-10-28T03:41:23;18.10;99.90
6581;DHT22;3324;50.796;7.228;2022-10-28T03:43:49;18.10;99.90
6581;DHT22;3324;50.796;7.228;2022-10-28T03:46:14;18.10;99.90
6581;DHT22;3324;50.796;7.228;2022-10-28T03:48:40;18.00;99.90
6581;DHT22;3324;50.796;7.228;2022-10-28T03:51:05;18.10;99.90
6581;DHT22;3324;50.796;7.228;2022-10-28T03:53:31;18.10;99.90
6581;DHT22;3324;50.796;7.228;2022-10-28T03:56:00;18.10;99.90
6581;DHT22;3324;50.796;7.228;2022-10-28T03:58:26;18.10;99.90
6581;DHT22;3324;50.796;7.228;2022-10-28T04:00:53;18.10;99.90
6581;DHT22;3324;50.796;7.228;2022-10-28T04:03:20;18.00;99.90
6581;DHT22;3324;50.796;7.228;2022-10-28T04:05:47;18.00;99.90
6581;DHT22;3324;50.796;7.228;2022-10-28T04:08:13;17.90;99.90
6581;DHT22;3324;50.796;7.228;2022-10-28T04:10:39;17.90;99.90
6581;DHT22;3324;50.796;7.228;2022-10-28T04:13:05;18.00;99.90
6581;DHT22;3324;50.796;7.228;2022-10-28T04:15:32;17.90;99.90
6581;DHT22;3324;50.796;7.228;2022-10-28T04:17:57;17.90;99.90
6581;DHT22;3324;50.796;7.228;2022-10-28T04:20:24;17.80;99.90
6581;DHT22;3324;50.796;7.228;2022-10-28T04:22:49;17.80;99.90
6581;DHT22;3324;50.796;7.228;2022-10-28T04:25:15;17.70;99.90
6581;DHT22;3324;50.796;7.228;2022-10-28T04:27:43;17.80;99.90
6581;DHT22;3324;50.796;7.228;2022-10-28T04:30:10;17.80;99.90
6581;DHT22;3324;50.796;7.228;2022-10-28T04:32:37;17.80;99.90
6581;DHT22;3324;50.796;7.228;2022-10-28T04:35:03;17.70;99.90
6581;DHT22;3324;50.796;7.228;2022-10-28T04:37:29;17.70;99.90
6581;DHT22;3324;50.796;7.228;2022-10-28T04:39:54;17.70;99.90
6581;DHT22;3324;50.796;7.228;2022-10-28T04:42:21;17.70;99.90
6581;DHT22;3324;50.796;7.228;2022-10-28T04:44:47;17.70;99.90
6581;DHT22;3324;50.796;7.228;2022-10-28T04:47:12;17.60;99.90
6581;DHT22;3324;50.796;7.228;2022-10-28T04:49:38;17.60;99.90
6581;DHT22;3324;50.796;7.228;2022-10-28T04:52:03;17.60;99.90
6581;DHT22;3324;50.796;7.228;2022-10-28T04:54:29;17.60;99.90
6581;DHT22;3324;50.796;7.228;2022-10-28T04:56:54;17.60;99.90
6581;DHT22;3324;50.796;7.228;2022-10-28T04:59:20;17.60;99.90
6581;DHT22;3324;50.796;7.228;2022-10-28T05:01:46;17.50;99.90
6581;DHT22;3324;50.796;7.228;2022-10-28T05:04:11;17.50;99.90
6581;DHT22;3324;50.796;7.228;2022-10-28T05:06:37;17.50;99.90
6581;DHT22;3324;50.796;7.228;2022-10-28T05:09:02;17.50;99.90
6581;DHT22;3324;50.796;7.228;2022-10-28T05:11:28;17.50;99.90
6581;DHT22;3324;50.796;7.228;2022-10-28T05:13:54;17.50;99.90
6581;DHT22;3324;50.796;7.228;2022-10-28T05:16:20;17.40;99.90
6581;DHT22;3324;50.796;7.228;2022-10-28T05:18:45;17.40;99.90
6581;DHT22;3324;50.796;7.228;2022-10-28T05:21:11;17.40;99.90
6581;DHT22;3324;50.796;7.228;2022-10-28T05:23:36;17.40;99.90
6581;DHT22;3324;50.796;7.228;2022-10-28T05:26:02;17.40;99.90
6581;DHT22;3324;50.796;7.228;2022-10-28T05:28:27;17.40;99.90
6581;DHT22;3324;50.796;7.228;2022-10-28T05:30:53;17.40;99.90
6581;DHT22;3324;50.796;7.228;2022-10-28T05:33:19;17.30;99.90
6581;DHT22;3324;50.796;7.228;2022-10-28T05:35:44;17.30;99.90
6581;DHT22;3324;50.796;7.228;2022-10-28T05:38:10;17.30;99.90
6581;DHT22;3324;50.796;7.228;2022-10-28T05:40:35;17.30;99.90
6581;DHT22;3324;50.796;7.228;2022-10-28T05:43:01;17.20;99.90
6581;DHT22;3324;50.796;7.228;2022-10-28T05:45:27;17.30;99.90
6581;DHT22;3324;50.796;7.228;2022-10-28T05:47:53;17.30;99.90
6581;DHT22;3324;50.796;7.228;2022-10-28T05:50:19;17.30;99.90
6581;DHT22;3324;50.796;7.228;2022-10-28T05:52:54;17.40;99.90
6581;DHT22;3324;50.796;7.228;2022-10-28T05:55:22;17.40;99.90
6581;DHT22;3324;50.796;7.228;2022-10-28T05:57:49;17.30;99.90
6581;DHT22;3324;50.796;7.228;2022-10-28T06:00:20;17.40;99.90
6581;DHT22;3324;50.796;7.228;2022-10-28T06:02:46;17.40;99.90
6581;DHT22;3324;50.796;7.228;2022-10-28T06:05:12;17.50;99.90
6581;DHT22;3324;50.796;7.228;2022-10-28T06:07:39;17.50;99.90
6581;DHT22;3324;50.796;7.228;2022-10-28T06:10:06;17.50;99.90
6581;DHT22;3324;50.796;7.228;2022-10-28T06:12:33;17.60;99.90
6581;DHT22;3324;50.796;7.228;2022-10-28T06:14:59;17.60;99.90
6581;DHT22;3324;50.796;7.228;2022-10-28T06:17:25;17.70;99.90
6581;DHT22;3324;50.796;7.228;2022-10-28T06:19:50;17.80;99.90
6581;DHT22;3324;50.796;7.228;2022-10-28T06:22:16;17.80;99.90
6581;DHT22;3324;50.796;7.228;2022-10-28T06:24:42;17.80;99.90
6581;DHT22;3324;50.796;7.228;2022-10-28T06:27:07;17.70;99.90
6581;DHT22;3324;50.796;7.228;2022-10-28T06:29:33;17.70;99.90
6581;DHT22;3324;50.796;7.228;2022-10-28T06:31:59;17.70;99.90
6581;DHT22;3324;50.796;7.228;2022-10-28T06:34:24;17.70;99.90
6581;DHT22;3324;50.796;7.228;2022-10-28T06:36:50;17.70;99.90
6581;DHT22;3324;50.796;7.228;2022-10-28T06:39:16;17.70;99.90
6581;DHT22;3324;50.796;7.228;2022-10-28T06:41:42;17.70;99.90
6581;DHT22;3324;50.796;7.228;2022-10-28T06:44:07;17.70;99.90
6581;DHT22;3324;50.796;7.228;2022-10-28T06:46:33;17.70;99.90
6581;DHT22;3324;50.796;7.228;2022-10-28T06:48:59;17.70;99.90
6581;DHT22;3324;50.796;7.228;2022-10-28T06:51:28;17.80;99.90
6581;DHT22;3324;50.796;7.228;2022-10-28T06:53:53;17.80;99.90
6581;DHT22;3324;50.796;7.228;2022-10-28T06:56:19;17.80;99.90
6581;DHT22;3324;50.796;7.228;2022-10-28T06:58:49;17.80;99.90
6581;DHT22;3324;50.796;7.228;2022-10-28T07:01:15;17.80;99.90
6581;DHT22;3324;50.796;7.228;2022-10-28T07:03:41;17.90;99.90
6581;DHT22;3324;50.796;7.228;2022-10-28T07:06:06;17.90;99.90
6581;DHT22;3324;50.796;7.228;2022-10-28T07:08:32;17.90;99.90
6581;DHT22;3324;50.796;7.228;2022-10-28T07:10:58;17.90;99.90
6581;DHT22;3324;50.796;7.228;2022-10-28T07:13:25;17.90;99.90
6581;DHT22;3324;50.796;7.228;2022-10-28T07:15:56;17.90;99.90
6581;DHT22;3324;50.796;7.228;2022-10-28T07:18:24;17.90;99.90
6581;DHT22;3324;50.796;7.228;2022-10-28T07:20:50;17.90;99.90
6581;DHT22;3324;50.796;7.228;2022-10-28T07:23:16;17.90;99.90
6581;DHT22;3324;50.796;7.228;2022-10-28T07:25:42;17.90;99.90
6581;DHT22;3324;50.796;7.228;2022-10-28T07:28:08;17.80;99.90
6581;DHT22;3324;50.796;7.228;2022-10-28T07:30:34;17.80;99.90
6581;DHT22;3324;50.796;7.228;2022-10-28T07:32:59;17.90;99.90
6581;DHT22;3324;50.796;7.228;2022-10-28T07:35:29;17.90;99.90
6581;DHT22;3324;50.796;7.228;2022-10-28T07:37:55;17.90;99.90
6581;DHT22;3324;50.796;7.228;2022-10-28T07:40:22;18.00;99.90
6581;DHT22;3324;50.796;7.228;2022-10-28T07:42:47;18.00;99.90
6581;DHT22;3324;50.796;7.228;2022-10-28T07:45:13;18.00;99.90
6581;DHT22;3324;50.796;7.228;2022-10-28T07:47:39;18.00;99.90
6581;DHT22;3324;50.796;7.228;2022-10-28T07:50:06;18.00;99.90
6581;DHT22;3324;50.796;7.228;2022-10-28T07:52:33;17.90;99.90
6581;DHT22;3324;50.796;7.228;2022-10-28T07:54:59;17.90;99.90
6581;DHT22;3324;50.796;7.228;2022-10-28T07:57:25;17.90;99.90
6581;DHT22;3324;50.796;7.228;2022-10-28T07:59:50;17.90;99.90
6581;DHT22;3324;50.796;7.228;2022-10-28T08:02:21;17.90;99.90
6581;DHT22;3324;50.796;7.228;2022-10-28T08:04:47;18.00;99.90
6581;DHT22;3324;50.796;7.228;2022-10-28T08:07:13;18.00;99.90
6581;DHT22;3324;50.796;7.228;2022-10-28T08:09:40;18.10;99.90
6581;DHT22;3324;50.796;7.228;2022-10-28T08:12:06;18.10;99.90
6581;DHT22;3324;50.796;7.228;2022-10-28T08:14:32;18.10;99.90
6581;DHT22;3324;50.796;7.228;2022-10-28T08:16:58;18.20;99.90
6581;DHT22;3324;50.796;7.228;2022-10-28T08:19:23;18.20;99.90
6581;DHT22;3324;50.796;7.228;2022-10-28T08:21:49;18.30;99.90
6581;DHT22;3324;50.796;7.228;2022-10-28T08:24:15;18.30;99.90
6581;DHT22;3324;50.796;7.228;2022-10-28T08:26:40;18.40;99.90
6581;DHT22;3324;50.796;7.228;2022-10-28T08:29:06;18.40;99.90
6581;DHT22;3324;50.796;7.228;2022-10-28T08:31:33;18.50;99.90
6581;DHT22;3324;50.796;7.228;2022-10-28T08:33:58;18.50;99.90
6581;DHT22;3324;50.796;7.228;2022-10-28T08:36:24;18.50;99.90
6581;DHT22;3324;50.796;7.228;2022-10-28T08:38:50;18.60;99.90
6581;DHT22;3324;50.796;7.228;2022-10-28T08:41:35;18.70;99.90
6581;DHT22;3324;50.796;7.228;2022-10-28T08:44:20;18.70;99.90
6581;DHT22;3324;50.796;7.228;2022-10-28T08:49:39;18.80;99.90
6581;DHT22;3324;50.796;7.228;2022-10-28T08:52:24;18.90;99.90
6581;DHT22;3324;50.796;7.228;2022-10-28T08:55:14;19.00;99.90
6581;DHT22;3324;50.796;7.228;2022-10-28T09:00:21;19.20;99.90
6581;DHT22;3324;50.796;7.228;2022-10-28T09:03:20;19.30;99.90
6581;DHT22;3324;50.796;7.228;2022-10-28T09:05:48;19.30;99.90
6581;DHT22;3324;50.796;7.228;2022-10-28T09:08:29;19.30;99.90
6581;DHT22;3324;50.796;7.228;2022-10-28T09:16:47;19.60;99.90
6581;DHT22;3324;50.796;7.228;2022-10-28T09:19:38;19.60;99.90
6581;DHT22;3324;50.796;7.228;2022-10-28T09:25:21;19.80;99.90
6581;DHT22;3324;50.796;7.228;2022-10-28T09:36:15;20.10;99.90
6581;DHT22;3324;50.796;7.228;2022-10-28T09:38:43;20.20;99.90
6581;DHT22;3324;50.796;7.228;2022-10-28T09:41:17;20.30;99.90
6581;DHT22;3324;50.796;7.228;2022-10-28T09:43:52;20.50;99.90
6581;DHT22;3324;50.796;7.228;2022-10-28T09:46:20;20.60;99.90
6581;DHT22;3324;50.796;7.228;2022-10-28T09:48:52;20.60;99.90
6581;DHT22;3324;50.796;7.228;2022-10-28T09:53:55;20.60;99.90
6581;DHT22;3324;50.796;7.228;2022-10-28T09:56:22;20.60;99.90
6581;DHT22;3324;50.796;7.228;2022-10-28T09:58:48;20.60;99.90
6581;DHT22;3324;50.796;7.228;2022-10-28T10:01:17;20.70;99.90
6581;DHT22;3324;50.796;7.228;2022-10-28T10:03:43;20.70;99.90
6581;DHT22;3324;50.796;7.228;2022-10-28T10:06:25;20.70;99.90
6581;DHT22;3324;50.796;7.228;2022-10-28T10:08:54;20.70;99.90
6581;DHT22;3324;50.796;7.228;2022-10-28T10:11:42;20.70;99.90
6581;DHT22;3324;50.796;7.228;2022-10-28T10:14:14;20.70;99.90
6581;DHT22;3324;50.796;7.228;2022-10-28T10:16:51;20.80;99.90
6581;DHT22;3324;50.796;7.228;2022-10-28T10:19:18;20.90;99.90
6581;DHT22;3324;50.796;7.228;2022-10-28T10:21:48;21.00;99.90
6581;DHT22;3324;50.796;7.228;2022-10-28T10:26:52;21.30;99.90
6581;DHT22;3324;50.796;7.228;2022-10-28T10:29:19;21.40;99.90
6581;DHT22;3324;50.796;7.228;2022-10-28T10:31:46;21.50;99.90
6581;DHT22;3324;50.796;7.228;2022-10-28T10:34:24;21.70;99.90
6581;DHT22;3324;50.796;7.228;2022-10-28T10:36:53;21.90;99.90
6581;DHT22;3324;50.796;7.228;2022-10-28T10:39:26;22.00;99.90
6581;DHT22;3324;50.796;7.228;2022-10-28T10:41:55;22.20;99.90
6581;DHT22;3324;50.796;7.228;2022-10-28T10:46:49;22.40;99.90
6581;DHT22;3324;50.796;7.228;2022-10-28T10:49:33;22.50;99.90
6581;DHT22;3324;50.796;7.228;2022-10-28T10:52:05;22.50;99.90
6581;DHT22;3324;50.796;7.228;2022-10-28T10:54:36;22.60;99.90
6581;DHT22;3324;50.796;7.228;2022-10-28T10:57:14;22.60;99.90
6581;DHT22;3324;50.796;7.228;2022-10-28T10:59:45;22.60;99.90
6581;DHT22;3324;50.796;7.228;2022-10-28T11:02:33;22.60;99.90
6581;DHT22;3324;50.796;7.228;2022-10-28T11:05:03;22.60;99.90
6581;DHT22;3324;50.796;7.228;2022-10-28T11:07:31;22.60;99.90
6581;DHT22;3324;50.796;7.228;2022-10-28T11:09:57;22.60;99.90
6581;DHT22;3324;50.796;7.228;2022-10-28T11:12:29;22.60;99.90
6581;DHT22;3324;50.796;7.228;2022-10-28T11:15:19;22.60;99.90
6581;DHT22;3324;50.796;7.228;2022-10-28T11:17:59;22.70;99.90
6581;DHT22;3324;50.796;7.228;2022-10-28T11:20:52;22.80;99.90
6581;DHT22;3324;50.796;7.228;2022-10-28T11:25:54;23.10;99.90
6581;DHT22;3324;50.796;7.228;2022-10-28T11:31:07;23.30;99.90
6581;DHT22;3324;50.796;7.228;2022-10-28T11:34:08;23.30;99.90
6581;DHT22;3324;50.796;7.228;2022-10-28T11:36:49;23.20;99.90
6581;DHT22;3324;50.796;7.228;2022-10-28T11:39:22;23.20;99.90
6581;DHT22;3324;50.796;7.228;2022-10-28T11:42:11;23.30;99.90
6581;DHT22;3324;50.796;7.228;2022-10-28T11:45:04;23.30;99.90
6581;DHT22;3324;50.796;7.228;2022-10-28T11:50:37;23.20;99.90
6581;DHT22;3324;50.796;7.228;2022-10-28T11:56:16;23.30;99.90
6581;DHT22;3324;50.796;7.228;2022-10-28T11:58:59;23.40;99.90
6581;DHT22;3324;50.796;7.228;2022-10-28T12:07:24;23.50;99.90
6581;DHT22;3324;50.796;7.228;2022-10-28T12:10:16;23.70;99.90
6581;DHT22;3324;50.796;7.228;2022-10-28T12:18:14;24.00;99.90
6581;DHT22;3324;50.796;7.228;2022-10-28T12:21:01;24.00;99.90
6581;DHT22;3324;50.796;7.228;2022-10-28T12:23:30;24.10;99.90
6581;DHT22;3324;50.796;7.228;2022-10-28T12:25:58;24.30;99.90
6581;DHT22;3324;50.796;7.228;2022-10-28T12:28:32;24.40;99.90
6581;DHT22;3324;50.796;7.228;2022-10-28T12:31:01;24.50;99.90
6581;DHT22;3324;50.796;7.228;2022-10-28T12:38:48;24.60;99.90
6581;DHT22;3324;50.796;7.228;2022-10-28T12:41:26;24.60;99.90
6581;DHT22;3324;50.796;7.228;2022-10-28T12:44:23;24.60;99.90
6581;DHT22;3324;50.796;7.228;2022-10-28T12:46:55;24.70;99.90
6581;DHT22;3324;50.796;7.228;2022-10-28T12:52:23;24.50;99.90
6581;DHT22;3324;50.796;7.228;2022-10-28T12:54:59;24.30;99.90
6581;DHT22;3324;50.796;7.228;2022-10-28T12:57:28;24.30;99.90
6581;DHT22;3324;50.796;7.228;2022-10-28T13:02:46;24.10;99.90
6581;DHT22;3324;50.796;7.228;2022-10-28T13:05:23;24.10;99.90
6581;DHT22;3324;50.796;7.228;2022-10-28T13:10:41;24.00;99.90
6581;DHT22;3324;50.796;7.228;2022-10-28T13:13:41;24.10;99.90
6581;DHT22;3324;50.796;7.228;2022-10-28T13:24:40;24.10;99.90
6581;DHT22;3324;50.796;7.228;2022-10-28T13:27:11;24.00;99.90
6581;DHT22;3324;50.796;7.228;2022-10-28T13:29:40;24.10;99.90
6581;DHT22;3324;50.796;7.228;2022-10-28T13:32:27;24.00;99.90
6581;DHT22;3324;50.796;7.228;2022-10-28T13:34:54;23.90;99.90
6581;DHT22;3324;50.796;7.228;2022-10-28T13:37:22;23.90;99.90
6581;DHT22;3324;50.796;7.228;2022-10-28T13:39:48;23.90;99.90
6581;DHT22;3324;50.796;7.228;2022-10-28T13:52:32;23.80;99.90
6581;DHT22;3324;50.796;7.228;2022-10-28T13:54:58;23.80;99.90
6581;DHT22;3324;50.796;7.228;2022-10-28T13:57:37;23.70;99.90
6581;DHT22;3324;50.796;7.228;2022-10-28T14:00:04;23.70;99.90
6581;DHT22;3324;50.796;7.228;2022-10-28T14:05:06;23.70;99.90
6581;DHT22;3324;50.796;7.228;2022-10-28T14:07:34;23.60;99.90
6581;DHT22;3324;50.796;7.228;2022-10-28T14:12:57;23.50;99.90
6581;DHT22;3324;50.796;7.228;2022-10-28T14:15:26;23.50;99.90
6581;DHT22;3324;50.796;7.228;2022-10-28T14:46:58;23.00;99.90
6581;DHT22;3324;50.796;7.228;2022-10-28T14:49:28;23.10;99.90
6581;DHT22;3324;50.796;7.228;2022-10-28T14:51:56;23.00;99.90
6581;DHT22;3324;50.796;7.228;2022-10-28T14:54:33;23.10;99.90
6581;DHT22;3324;50.796;7.228;2022-10-28T14:57:02;23.20;99.90
6581;DHT22;3324;50.796;7.228;2022-10-28T14:59:44;23.20;99.90
6581;DHT22;3324;50.796;7.228;2022-10-28T15:02:13;23.30;99.90
6581;DHT22;3324;50.796;7.228;2022-10-28T15:04:43;23.40;99.90
6581;DHT22;3324;50.796;7.228;2022-10-28T15:07:15;23.10;99.90
6581;DHT22;3324;50.796;7.228;2022-10-28T15:09:42;23.00;99.90
6581;DHT22;3324;50.796;7.228;2022-10-28T15:12:14;22.90;99.90
6581;DHT22;3324;50.796;7.228;2022-10-28T15:14:52;22.70;99.90
6581;DHT22;3324;50.796;7.228;2022-10-28T15:17:23;22.70;99.90
6581;DHT22;3324;50.796;7.228;2022-10-28T15:19:52;22.60;99.90
6581;DHT22;3324;50.796;7.228;2022-10-28T15:22:22;22.50;99.90
6581;DHT22;3324;50.796;7.228;2022-10-28T15:27:34;22.50;99.90
6581;DHT22;3324;50.796;7.228;2022-10-28T15:30:00;22.50;99.90
6581;DHT22;3324;50.796;7.228;2022-10-28T15:32:29;22.60;99.90
6581;DHT22;3324;50.796;7.228;2022-10-28T15:34:55;22.60;99.90
6581;DHT22;3324;50.796;7.228;2022-10-28T15:37:28;22.70;99.90
6581;DHT22;3324;50.796;7.228;2022-10-28T15:40:20;22.80;99.90
6581;DHT22;3324;50.796;7.228;2022-10-28T15:42:58;22.90;99.90
6581;DHT22;3324;50.796;7.228;2022-10-28T15:45:30;22.80;99.90
6581;DHT22;3324;50.796;7.228;2022-10-28T15:47:57;22.90;99.90
6581;DHT22;3324;50.796;7.228;2022-10-28T15:53:18;22.60;99.90
6581;DHT22;3324;50.796;7.228;2022-10-28T15:55:40;22.40;99.90
6581;DHT22;3324;50.796;7.228;2022-10-28T16:00:37;22.10;99.90
6581;DHT22;3324;50.796;7.228;2022-10-28T16:03:24;22.00;99.90
6581;DHT22;3324;50.796;7.228;2022-10-28T16:05:51;21.80;99.90
6581;DHT22;3324;50.796;7.228;2022-10-28T16:08:26;21.80;99.90
6581;DHT22;3324;50.796;7.228;2022-10-28T16:10:59;21.70;99.90
6581;DHT22;3324;50.796;7.228;2022-10-28T16:13:29;21.60;99.90
6581;DHT22;3324;50.796;7.228;2022-10-28T16:16:02;21.50;99.90
6581;DHT22;3324;50.796;7.228;2022-10-28T16:18:28;21.50;99.90
6581;DHT22;3324;50.796;7.228;2022-10-28T16:20:57;21.50;99.90
6581;DHT22;3324;50.796;7.228;2022-10-28T16:23:27;21.50;99.90
6581;DHT22;3324;50.796;7.228;2022-10-28T16:25:54;21.40;99.90
6581;DHT22;3324;50.796;7.228;2022-10-28T16:28:26;21.40;99.90
6581;DHT22;3324;50.796;7.228;2022-10-28T16:30:57;21.30;99.90
6581;DHT22;3324;50.796;7.228;2022-10-28T16:33:29;21.30;99.90
6581;DHT22;3324;50.796;7.228;2022-10-28T16:35:55;21.20;99.90
6581;DHT22;3324;50.796;7.228;2022-10-28T16:38:21;21.30;99.90
6581;DHT22;3324;50.796;7.228;2022-10-28T16:40:47;21.30;99.90
6581;DHT22;3324;50.796;7.228;2022-10-28T16:43:16;21.20;99.90
6581;DHT22;3324;50.796;7.228;2022-10-28T16:45:41;21.20;99.90
6581;DHT22;3324;50.796;7.228;2022-10-28T16:48:10;21.10;99.90
6581;DHT22;3324;50.796;7.228;2022-10-28T16:50:37;21.10;99.90
6581;DHT22;3324;50.796;7.228;2022-10-28T16:53:02;21.00;99.90
6581;DHT22;3324;50.796;7.228;2022-10-28T16:55:28;20.90;99.90
6581;DHT22;3324;50.796;7.228;2022-10-28T16:57:53;20.80;99.90
6581;DHT22;3324;50.796;7.228;2022-10-28T17:00:19;20.70;99.90
6581;DHT22;3324;50.796;7.228;2022-10-28T17:02:45;20.70;99.90
6581;DHT22;3324;50.796;7.228;2022-10-28T17:05:18;20.60;99.90
6581;DHT22;3324;50.796;7.228;2022-10-28T17:07:44;20.50;99.90
6581;DHT22;3324;50.796;7.228;2022-10-28T17:10:11;20.40;99.90
6581;DHT22;3324;50.796;7.228;2022-10-28T17:12:36;20.40;99.90
6581;DHT22;3324;50.796;7.228;2022-10-28T17:15:02;20.30;99.90
6581;DHT22;3324;50.796;7.228;2022-10-28T17:17:28;20.40;99.90
6581;DHT22;3324;50.796;7.228;2022-10-28T17:19:53;20.30;99.90
6581;DHT22;3324;50.796;7.228;2022-10-28T17:22:19;20.20;99.90
6581;DHT22;3324;50.796;7.228;2022-10-28T17:24:45;20.30;99.90
6581;DHT22;3324;50.796;7.228;2022-10-28T17:27:10;20.20;99.90
6581;DHT22;3324;50.796;7.228;2022-10-28T17:29:37;20.10;99.90
6581;DHT22;3324;50.796;7.228;2022-10-28T17:32:03;20.10;99.90
6581;DHT22;3324;50.796;7.228;2022-10-28T17:34:31;20.00;99.90
6581;DHT22;3324;50.796;7.228;2022-10-28T17:36:56;19.90;99.90
6581;DHT22;3324;50.796;7.228;2022-10-28T17:39:22;20.00;99.90
6581;DHT22;3324;50.796;7.228;2022-10-28T17:41:47;19.90;99.90
6581;DHT22;3324;50.796;7.228;2022-10-28T17:44:13;19.80;99.90
6581;DHT22;3324;50.796;7.228;2022-10-28T17:46:38;19.90;99.90
6581;DHT22;3324;50.796;7.228;2022-10-28T17:49:04;19.80;99.90
6581;DHT22;3324;50.796;7.228;2022-10-28T17:51:36;19.80;99.90
6581;DHT22;3324;50.796;7.228;2022-10-28T17:54:02;19.80;99.90
6581;DHT22;3324;50.796;7.228;2022-10-28T17:56:32;19.90;99.90
6581;DHT22;3324;50.796;7.228;2022-10-28T17:58:58;19.90;99.90
6581;DHT22;3324;50.796;7.228;2022-10-28T18:01:31;19.80;99.90
6581;DHT22;3324;50.796;7.228;2022-10-28T18:03:57;19.80;99.90
6581;DHT22;3324;50.796;7.228;2022-10-28T18:06:23;19.80;99.90
6581;DHT22;3324;50.796;7.228;2022-10-28T18:08:49;19.80;99.90
6581;DHT22;3324;50.796;7.228;2022-10-28T18:11:15;19.70;99.90
6581;DHT22;3324;50.796;7.228;2022-10-28T18:13:44;19.60;99.90
6581;DHT22;3324;50.796;7.228;2022-10-28T18:16:15;19.50;99.90
6581;DHT22;3324;50.796;7.228;2022-10-28T18:18:41;19.50;99.90
6581;DHT22;3324;50.796;7.228;2022-10-28T18:21:07;19.50;99.90
6581;DHT22;3324;50.796;7.228;2022-10-28T18:23:33;19.50;99.90
6581;DHT22;3324;50.796;7.228;2022-10-28T18:26:04;19.50;99.90
6581;DHT22;3324;50.796;7.228;2022-10-28T18:28:31;19.40;99.90
6581;DHT22;3324;50.796;7.228;2022-10-28T18:31:05;19.30;99.90
6581;DHT22;3324;50.796;7.228;2022-10-28T18:33:32;19.20;99.90
6581;DHT22;3324;50.796;7.228;2022-10-28T18:36:03;19.20;99.90
6581;DHT22;3324;50.796;7.228;2022-10-28T18:38:29;19.20;99.90
6581;DHT22;3324;50.796;7.228;2022-10-28T18:40:55;19.10;99.90
6581;DHT22;3324;50.796;7.228;2022-10-28T18:43:21;19.10;99.90
6581;DHT22;3324;50.796;7.228;2022-10-28T18:45:48;19.00;99.90
6581;DHT22;3324;50.796;7.228;2022-10-28T18:48:14;18.90;99.90
6581;DHT22;3324;50.796;7.228;2022-10-28T18:50:40;18.90;99.90
6581;DHT22;3324;50.796;7.228;2022-10-28T18:53:05;18.80;99.90
6581;DHT22;3324;50.796;7.228;2022-10-28T18:55:31;18.80;99.90
6581;DHT22;3324;50.796;7.228;2022-10-28T18:57:57;18.80;99.90
6581;DHT22;3324;50.796;7.228;2022-10-28T19:00:23;18.80;99.90
6581;DHT22;3324;50.796;7.228;2022-10-28T19:02:49;18.70;99.90
6581;DHT22;3324;50.796;7.228;2022-10-28T19:05:15;18.70;99.90